Gulf Reliance — WDD2703 — position and weather

sailwx.info

Track history (hours):
 
Tides and Currents Weather Stations Pressure Air Temp Water Temp Dewpoint Dewpoint Depression Visibility Wind Speed Wind Dir Waves Ship Positions

Gulf Reliance

Owner: Intrepid Ship Management, Jacksonville, FL. More information available from US FCC via Universal Licensing System and Coast Guard Vessel Documentation Center.

Last reported at 2017-Dec-11 16:59 UTC. Time now 2017-Dec-13 07:28 UTC.
Position N 33°48' W 120°37'.

Type: Towing. MMSI: 303668000.

Date/timePositionNaut miles runAvg speedWind from/ knotsBaromVisibWave heightAir tempDewpointWater temp
2017-Dec-11 16:59N 33°48' W 120°37'611.7
2017-Dec-11 16:26N 33°44' W 120°31'512.0
2017-Dec-11 16:00N 33°42' W 120°25'611.7
2017-Dec-11 15:30N 33°41' W 120°18'711.8
2017-Dec-11 14:57N 33°41' W 120°10'511.9
2017-Dec-11 14:30N 33°40' W 120°04'611.7
2017-Dec-11 14:00N 33°38' W 119°57'611.6
2017-Dec-11 13:30N 33°39' W 119°51'611.8
2017-Dec-11 13:00N 33°41' W 119°44'612.0
2017-Dec-11 12:29N 33°41' W 119°36'611.6
2017-Dec-11 11:59N 33°41' W 119°29'611.8
2017-Dec-11 11:29N 33°41' W 119°22'611.8
2017-Dec-11 11:00N 33°41' W 119°15'611.5
2017-Dec-11 10:30N 33°41' W 119°09'611.7
2017-Dec-11 10:00N 33°41' W 119°02'611.6
2017-Dec-11 09:30N 33°40' W 118°55'611.5
2017-Dec-11 09:00N 33°40' W 118°48'611.6
2017-Dec-11 08:30N 33°39' W 118°41'611.8
2017-Dec-11 08:00N 33°39' W 118°34'15 5.0
2017-Dec-11 04:56N 33°43' W 118°16'8 0.3
2017-Dec-10 03:11N 33°36' W 118°21'211.4
2017-Dec-10 03:00N 33°36' W 118°24'611.6
2017-Dec-10 02:30N 33°36' W 118°31'611.8
2017-Dec-10 02:00N 33°36' W 118°38'611.8
2017-Dec-10 01:30N 33°36' W 118°45'612.1
2017-Dec-10 01:00N 33°37' W 118°52'611.9
2017-Dec-10 00:30N 33°37' W 118°59'510.5
2017-Dec-10 00:00N 33°38' W 119°06'510.8
2017-Dec-09 23:30N 33°38' W 119°12'611.9
2017-Dec-09 23:00N 33°38' W 119°19'611.7
2017-Dec-09 22:30N 33°38' W 119°26'611.8
2017-Dec-09 22:00N 33°38' W 119°33'612.0
2017-Dec-09 21:30N 33°38' W 119°40'612.1
2017-Dec-09 21:00N 33°38' W 119°48'611.9
2017-Dec-09 20:30N 33°37' W 119°55'611.4
2017-Dec-09 20:00N 33°38' W 120°02'611.4
2017-Dec-09 19:29N 33°38' W 120°09'611.4
2017-Dec-09 18:58N 33°38' W 120°16'511.0
2017-Dec-09 18:30N 33°40' W 120°22'611.4
2017-Dec-09 18:00N 33°42' W 120°28'611.7
2017-Dec-09 17:29N 33°45' W 120°35'611.8
2017-Dec-09 16:59N 33°47' W 120°41'811.9
2017-Dec-09 16:20N 33°50' W 120°49'411.8
2017-Dec-09 15:58N 33°52' W 120°54'611.7
2017-Dec-09 15:29N 33°54' W 121°01'611.8
2017-Dec-09 14:59N 33°56' W 121°07'611.5
2017-Dec-09 14:29N 33°59' W 121°14'612.2
2017-Dec-09 14:00N 34°01' W 121°20'612.1
2017-Dec-09 13:30N 34°03' W 121°27'611.9
2017-Dec-09 13:00N 34°06' W 121°33'611.7
2017-Dec-09 12:30N 34°10' W 121°38'612.4
2017-Dec-09 12:00N 34°15' W 121°43'612.0
2017-Dec-09 11:30N 34°19' W 121°48'611.7
2017-Dec-09 11:00N 34°24' W 121°52'611.3
2017-Dec-09 10:30N 34°28' W 121°57'611.5
2017-Dec-09 10:00N 34°33' W 122°01'612.0
2017-Dec-09 09:30N 34°37' W 122°05'612.0
2017-Dec-09 09:00N 34°42' W 122°10'612.0
2017-Dec-09 08:30N 34°47' W 122°15'611.9
2017-Dec-09 08:00N 34°51' W 122°19'611.9
2017-Dec-09 07:30N 34°56' W 122°24'612.3
2017-Dec-09 07:00N 35°00' W 122°29'612.4
2017-Dec-09 06:30N 35°05' W 122°34'612.2
2017-Dec-09 06:00N 35°10' W 122°39'612.1
2017-Dec-09 05:30N 35°14' W 122°43'612.0
2017-Dec-09 05:00N 35°19' W 122°48'612.2
2017-Dec-09 04:30N 35°24' W 122°53'612.2
2017-Dec-09 04:00N 35°29' W 122°57'612.1
2017-Dec-09 03:30N 35°34' W 123°01'612.5
2017-Dec-09 03:00N 35°40' W 123°03'612.9
2017-Dec-09 02:30N 35°46' W 123°05'612.9
2017-Dec-09 02:00N 35°52' W 123°07'612.5
2017-Dec-09 01:30N 35°59' W 123°09'612.3
2017-Dec-09 01:00N 36°05' W 123°10'611.9
2017-Dec-09 00:30N 36°10' W 123°12'611.8
2017-Dec-09 00:00N 36°16' W 123°14'611.8
2017-Dec-08 23:30N 36°22' W 123°15'611.8
2017-Dec-08 23:00N 36°28' W 123°17'611.8
2017-Dec-08 22:30N 36°33' W 123°18'611.7
2017-Dec-08 22:00N 36°39' W 123°20'611.5
2017-Dec-08 21:30N 36°45' W 123°22'611.6
2017-Dec-08 21:00N 36°50' W 123°24'611.4
2017-Dec-08 20:30N 36°56' W 123°25'611.2
2017-Dec-08 20:00N 37°01' W 123°27'611.6
2017-Dec-08 19:30N 37°07' W 123°29'510.1
2017-Dec-08 19:00N 37°12' W 123°28'611.7
2017-Dec-08 18:30N 37°16' W 123°23'611.7
2017-Dec-08 18:00N 37°20' W 123°18'611.4
2017-Dec-08 17:30N 37°25' W 123°14'611.7
2017-Dec-08 17:00N 37°30' W 123°09'510.1
2017-Dec-08 16:30N 37°33' W 123°05'510.2
2017-Dec-08 16:00N 37°36' W 122°60'510.8
2017-Dec-08 15:30N 37°39' W 122°54'510.3
2017-Dec-08 15:00N 37°42' W 122°49'611.8
2017-Dec-08 14:30N 37°45' W 122°42'510.7
2017-Dec-08 14:00N 37°47' W 122°36'612.4
2017-Dec-08 13:30N 37°49' W 122°29'4 8.5
2017-Dec-08 13:00N 37°52' W 122°25'510.1
2017-Dec-08 12:30N 37°57' W 122°27'5 9.6
2017-Dec-08 12:00N 38°01' W 122°23'5 9.2
2017-Dec-08 11:30N 38°03' W 122°18'4 8.1
2017-Dec-08 11:00N 38°04' W 122°13'4 7.6
2017-Dec-08 10:30N 38°02' W 122°09'0 0.9
2017-Dec-08 10:00N 38°02' W 122°08'0 0.0
2017-Dec-08 09:15N 38°02' W 122°08'0 0.0
2017-Dec-08 08:57N 38°02' W 122°08'0 0.0
2017-Dec-08 08:21N 38°02' W 122°08'0 0.0
2017-Dec-08 07:51N 38°02' W 122°08'0 0.0
2017-Dec-08 07:27N 38°02' W 122°08'0 0.0
2017-Dec-08 06:57N 38°02' W 122°08'0 0.0
2017-Dec-08 06:21N 38°02' W 122°08'0 0.0
2017-Dec-08 05:51N 38°02' W 122°08'0 0.0
2017-Dec-08 05:27N 38°02' W 122°08'0 0.0
2017-Dec-08 04:57N 38°02' W 122°08'0 0.0
2017-Dec-08 04:27N 38°02' W 122°08'0 0.0
2017-Dec-08 03:57N 38°02' W 122°08'0 0.0
2017-Dec-08 03:27N 38°02' W 122°08'0 0.0
2017-Dec-08 02:57N 38°02' W 122°08'0 0.0
2017-Dec-08 02:27N 38°02' W 122°08'0 0.0
2017-Dec-08 01:57N 38°02' W 122°08'0 0.0
2017-Dec-08 01:27N 38°02' W 122°08'0 0.0
2017-Dec-08 00:57N 38°02' W 122°08'0 0.0
2017-Dec-08 00:27N 38°02' W 122°08'0 0.0
2017-Dec-07 23:57N 38°02' W 122°08'0 0.0
2017-Dec-07 23:15N 38°02' W 122°08'0 0.0
2017-Dec-07 22:57N 38°02' W 122°08'0 0.0
2017-Dec-07 22:15N 38°02' W 122°08'0 0.0
2017-Dec-07 21:57N 38°02' W 122°08'0 0.0
2017-Dec-07 21:27N 38°02' W 122°08'0 0.0
2017-Dec-07 20:57N 38°02' W 122°08'0 0.0
2017-Dec-07 20:27N 38°02' W 122°08'0 0.0
2017-Dec-07 19:57N 38°02' W 122°08'0 0.0
2017-Dec-07 19:27N 38°02' W 122°08'0 0.0
2017-Dec-07 18:57N 38°02' W 122°08'0 0.0
2017-Dec-07 18:27N 38°02' W 122°08'0 0.0
2017-Dec-07 17:57N 38°02' W 122°08'0 0.0
2017-Dec-07 17:27N 38°02' W 122°08'0 0.0
2017-Dec-07 16:51N 38°02' W 122°08'0 0.0
2017-Dec-07 16:27N 38°02' W 122°08'0 0.0
2017-Dec-07 15:57N 38°02' W 122°08'0 0.0
2017-Dec-07 15:27N 38°02' W 122°08'0 0.0
2017-Dec-07 14:51N 38°02' W 122°08'0 0.0
2017-Dec-07 14:27N 38°02' W 122°08'0 0.0
2017-Dec-07 13:57N 38°02' W 122°08'0 0.0
2017-Dec-07 13:27N 38°02' W 122°08'0 0.0
2017-Dec-07 12:57N 38°02' W 122°08'0 0.0
2017-Dec-07 12:27N 38°02' W 122°08'0 0.0
2017-Dec-07 11:57N 38°02' W 122°08'0 0.0
2017-Dec-07 11:27N 38°02' W 122°08'0 0.0
2017-Dec-07 10:57N 38°02' W 122°08'0 0.0
2017-Dec-07 10:27N 38°02' W 122°08'0 0.0
2017-Dec-07 09:57N 38°02' W 122°08'0 0.0
2017-Dec-07 09:21N 38°02' W 122°08'0 0.0
2017-Dec-07 08:57N 38°02' W 122°08'0 0.0
2017-Dec-07 08:27N 38°02' W 122°08'0 0.0
2017-Dec-07 07:51N 38°02' W 122°08'0 0.0
2017-Dec-07 07:27N 38°02' W 122°08'0 0.0
2017-Dec-07 06:51N 38°02' W 122°08'0 0.0
2017-Dec-07 06:27N 38°02' W 122°08'0 0.0
2017-Dec-07 05:57N 38°02' W 122°08'0 0.0
2017-Dec-07 05:27N 38°02' W 122°08'0 0.0
2017-Dec-07 04:57N 38°02' W 122°08'0 0.0
2017-Dec-07 04:21N 38°02' W 122°08'0 0.0
2017-Dec-07 03:51N 38°02' W 122°08'0 0.0
2017-Dec-07 03:27N 38°02' W 122°08'0 0.0
2017-Dec-07 02:57N 38°02' W 122°08'0 0.0
2017-Dec-07 02:27N 38°02' W 122°08'0 0.0
2017-Dec-07 01:57N 38°02' W 122°08'0 0.0
2017-Dec-07 01:27N 38°02' W 122°08'0 0.0
2017-Dec-07 00:53N 38°02' W 122°08'0 0.0
2017-Dec-07 00:29N 38°02' W 122°08'0 0.0
2017-Dec-07 00:00N 38°02' W 122°08'0 0.0
2017-Dec-06 23:30N 38°02' W 122°08'0 0.0
2017-Dec-06 23:00N 38°02' W 122°08'0 0.0
2017-Dec-06 22:30N 38°02' W 122°08'0 0.0
2017-Dec-06 22:00N 38°02' W 122°08'0 0.0
2017-Dec-06 21:31N 38°02' W 122°08'0 0.0
2017-Dec-06 21:01N 38°02' W 122°08'  
2017-Dec-04 02:14N 33°45' W 118°16'0 0.0
2017-Dec-04 02:01N 33°45' W 118°16'0 0.0
2017-Dec-04 01:29N 33°45' W 118°16'0 0.0
2017-Dec-04 01:00N 33°45' W 118°16'0 0.0
2017-Dec-04 00:31N 33°45' W 118°16'0 0.0
2017-Dec-04 00:00N 33°45' W 118°16'0 0.0
2017-Dec-03 23:30N 33°45' W 118°16'0 0.0
2017-Dec-03 23:01N 33°45' W 118°16'0 0.0
2017-Dec-03 09:42N 33°45' W 118°16'0 0.0
2017-Dec-03 08:53N 33°45' W 118°16'0 0.0
2017-Dec-03 08:31N 33°45' W 118°16'0 0.0
2017-Dec-03 07:59N 33°45' W 118°16'1 1.5
2017-Dec-03 07:30N 33°45' W 118°16'3 5.8
2017-Dec-03 07:01N 33°42' W 118°15'4 8.8
2017-Dec-03 06:31N 33°38' W 118°16'510.0
2017-Dec-03 05:59N 33°36' W 118°22'611.4
2017-Dec-03 05:28N 33°36' W 118°29'611.8
2017-Dec-03 05:00N 33°37' W 118°36'611.7
2017-Dec-03 04:30N 33°37' W 118°43'611.5
2017-Dec-03 03:58N 33°37' W 118°50'511.6
2017-Dec-03 03:30N 33°37' W 118°56'611.5
2017-Dec-03 03:00N 33°38' W 119°03'611.9
2017-Dec-03 02:30N 33°39' W 119°10'610.8
2017-Dec-03 01:59N 33°41' W 119°17'612.0
2017-Dec-03 01:30N 33°42' W 119°23'612.3
2017-Dec-03 01:00N 33°44' W 119°30'612.2
2017-Dec-03 00:30N 33°46' W 119°37'612.3
2017-Dec-03 00:01N 33°47' W 119°45'612.3
2017-Dec-02 23:30N 33°46' W 119°52'612.3
2017-Dec-02 23:01N 33°46' W 119°59'612.4
2017-Dec-02 22:30N 33°45' W 120°07'510.8
2017-Dec-02 22:00N 33°44' W 120°13'611.1
2017-Dec-02 21:31N 33°43' W 120°20'510.6
2017-Dec-02 21:01N 33°43' W 120°26'611.1
2017-Dec-02 20:31N 33°45' W 120°32'611.3
2017-Dec-02 20:00N 33°47' W 120°39'611.3
2017-Dec-02 19:30N 33°50' W 120°45'611.1
2017-Dec-02 19:01N 33°52' W 120°51'610.9
2017-Dec-02 18:30N 33°53' W 120°57'611.1
2017-Dec-02 18:00N 33°55' W 121°04'611.1
2017-Dec-02 17:30N 33°57' W 121°10'611.5
2017-Dec-02 17:01N 33°60' W 121°16'611.2
2017-Dec-02 16:30N 34°02' W 121°22'510.9
2017-Dec-02 16:01N 34°04' W 121°28'611.2
2017-Dec-02 15:30N 34°06' W 121°35'611.4
2017-Dec-02 15:01N 34°11' W 121°39'611.2
2017-Dec-02 14:30N 34°15' W 121°43'611.4
2017-Dec-02 14:01N 34°19' W 121°48'611.2
2017-Dec-02 13:30N 34°24' W 121°52'611.3
2017-Dec-02 13:00N 34°28' W 121°56'611.4
2017-Dec-02 12:31N 34°32' W 122°01'611.5
2017-Dec-02 12:00N 34°37' W 122°05'611.5
2017-Dec-02 11:30N 34°41' W 122°10'611.4
2017-Dec-02 11:01N 34°45' W 122°14'611.9
2017-Dec-02 10:31N 34°50' W 122°19'611.8
2017-Dec-02 10:01N 34°55' W 122°24'611.9
2017-Dec-02 09:31N 34°59' W 122°28'611.8
2017-Dec-02 09:01N 35°04' W 122°33'611.8
2017-Dec-02 08:30N 35°08' W 122°38'611.6
2017-Dec-02 08:01N 35°13' W 122°42'611.6
2017-Dec-02 07:30N 35°17' W 122°47'611.8
2017-Dec-02 06:59N 35°22' W 122°51'611.8
2017-Dec-02 06:31N 35°26' W 122°56'611.1
2017-Dec-02 06:00N 35°31' W 122°60'611.5
2017-Dec-02 05:31N 35°36' W 123°02'611.5
2017-Dec-02 05:00N 35°42' W 123°04'611.5
2017-Dec-02 04:30N 35°47' W 123°06'611.8
2017-Dec-02 03:59N 35°53' W 123°07'611.7
2017-Dec-02 03:31N 35°59' W 123°09'611.9
2017-Dec-02 03:01N 36°05' W 123°10'612.0
2017-Dec-02 02:30N 36°10' W 123°12'712.0
2017-Dec-02 01:58N 36°17' W 123°14'612.1
2017-Dec-02 01:28N 36°23' W 123°16'512.0
2017-Dec-02 01:00N 36°28' W 123°17'612.0
2017-Dec-02 00:30N 36°34' W 123°19'711.8
2017-Dec-01 23:56N 36°40' W 123°21'511.7
2017-Dec-01 23:29N 36°46' W 123°23'611.5
2017-Dec-01 22:58N 36°51' W 123°24'511.5
2017-Dec-01 22:30N 36°56' W 123°25'611.4
2017-Dec-01 22:00N 37°02' W 123°26'610.7
2017-Dec-01 21:29N 37°08' W 123°25'510.6
2017-Dec-01 20:58N 37°13' W 123°25'510.5
2017-Dec-01 20:30N 37°17' W 123°21'510.9
2017-Dec-01 20:00N 37°21' W 123°17'510.7
2017-Dec-01 19:31N 37°26' W 123°13'510.9
2017-Dec-01 19:00N 37°30' W 123°09'510.7
2017-Dec-01 18:30N 37°34' W 123°04'5 9.7
2017-Dec-01 18:00N 37°36' W 122°59'510.1
2017-Dec-01 17:30N 37°39' W 122°54'510.2
2017-Dec-01 17:00N 37°42' W 122°48'  
Track history (hours):
 
Tides and Currents Weather Stations Pressure Air Temp Water Temp Dewpoint Dewpoint Depression Visibility Wind Speed Wind Dir Waves Ship Positions

Gulf Reliance

Owner: Intrepid Ship Management, Jacksonville, FL. More information available from US FCC via Universal Licensing System and Coast Guard Vessel Documentation Center.

Last reported at 2017-Dec-11 16:59 UTC. Time now 2017-Dec-13 07:28 UTC.
Position N 33°48' W 120°37'.

Type: Towing. MMSI: 303668000.

Date/timePositionNaut miles runAvg speedWind from/ knotsBaromVisibWave heightAir tempDewpointWater temp
2017-Dec-11 16:59N 33°48' W 120°37'611.7
2017-Dec-11 16:26N 33°44' W 120°31'512.0
2017-Dec-11 16:00N 33°42' W 120°25'611.7
2017-Dec-11 15:30N 33°41' W 120°18'711.8
2017-Dec-11 14:57N 33°41' W 120°10'511.9
2017-Dec-11 14:30N 33°40' W 120°04'611.7
2017-Dec-11 14:00N 33°38' W 119°57'611.6
2017-Dec-11 13:30N 33°39' W 119°51'611.8
2017-Dec-11 13:00N 33°41' W 119°44'612.0
2017-Dec-11 12:29N 33°41' W 119°36'611.6
2017-Dec-11 11:59N 33°41' W 119°29'611.8
2017-Dec-11 11:29N 33°41' W 119°22'611.8
2017-Dec-11 11:00N 33°41' W 119°15'611.5
2017-Dec-11 10:30N 33°41' W 119°09'611.7
2017-Dec-11 10:00N 33°41' W 119°02'611.6
2017-Dec-11 09:30N 33°40' W 118°55'611.5
2017-Dec-11 09:00N 33°40' W 118°48'611.6
2017-Dec-11 08:30N 33°39' W 118°41'611.8
2017-Dec-11 08:00N 33°39' W 118°34'15 5.0
2017-Dec-11 04:56N 33°43' W 118°16'8 0.3
2017-Dec-10 03:11N 33°36' W 118°21'211.4
2017-Dec-10 03:00N 33°36' W 118°24'611.6
2017-Dec-10 02:30N 33°36' W 118°31'611.8
2017-Dec-10 02:00N 33°36' W 118°38'611.8
2017-Dec-10 01:30N 33°36' W 118°45'612.1
2017-Dec-10 01:00N 33°37' W 118°52'611.9
2017-Dec-10 00:30N 33°37' W 118°59'510.5
2017-Dec-10 00:00N 33°38' W 119°06'510.8
2017-Dec-09 23:30N 33°38' W 119°12'611.9
2017-Dec-09 23:00N 33°38' W 119°19'611.7
2017-Dec-09 22:30N 33°38' W 119°26'611.8
2017-Dec-09 22:00N 33°38' W 119°33'612.0
2017-Dec-09 21:30N 33°38' W 119°40'612.1
2017-Dec-09 21:00N 33°38' W 119°48'611.9
2017-Dec-09 20:30N 33°37' W 119°55'611.4
2017-Dec-09 20:00N 33°38' W 120°02'611.4
2017-Dec-09 19:29N 33°38' W 120°09'611.4
2017-Dec-09 18:58N 33°38' W 120°16'511.0
2017-Dec-09 18:30N 33°40' W 120°22'611.4
2017-Dec-09 18:00N 33°42' W 120°28'611.7
2017-Dec-09 17:29N 33°45' W 120°35'611.8
2017-Dec-09 16:59N 33°47' W 120°41'811.9
2017-Dec-09 16:20N 33°50' W 120°49'411.8
2017-Dec-09 15:58N 33°52' W 120°54'611.7
2017-Dec-09 15:29N 33°54' W 121°01'611.8
2017-Dec-09 14:59N 33°56' W 121°07'611.5
2017-Dec-09 14:29N 33°59' W 121°14'612.2
2017-Dec-09 14:00N 34°01' W 121°20'612.1
2017-Dec-09 13:30N 34°03' W 121°27'611.9
2017-Dec-09 13:00N 34°06' W 121°33'611.7
2017-Dec-09 12:30N 34°10' W 121°38'612.4
2017-Dec-09 12:00N 34°15' W 121°43'612.0
2017-Dec-09 11:30N 34°19' W 121°48'611.7
2017-Dec-09 11:00N 34°24' W 121°52'611.3
2017-Dec-09 10:30N 34°28' W 121°57'611.5
2017-Dec-09 10:00N 34°33' W 122°01'612.0
2017-Dec-09 09:30N 34°37' W 122°05'612.0
2017-Dec-09 09:00N 34°42' W 122°10'612.0
2017-Dec-09 08:30N 34°47' W 122°15'611.9
2017-Dec-09 08:00N 34°51' W 122°19'611.9
2017-Dec-09 07:30N 34°56' W 122°24'612.3
2017-Dec-09 07:00N 35°00' W 122°29'612.4
2017-Dec-09 06:30N 35°05' W 122°34'612.2
2017-Dec-09 06:00N 35°10' W 122°39'612.1
2017-Dec-09 05:30N 35°14' W 122°43'612.0
2017-Dec-09 05:00N 35°19' W 122°48'612.2
2017-Dec-09 04:30N 35°24' W 122°53'612.2
2017-Dec-09 04:00N 35°29' W 122°57'612.1
2017-Dec-09 03:30N 35°34' W 123°01'612.5
2017-Dec-09 03:00N 35°40' W 123°03'612.9
2017-Dec-09 02:30N 35°46' W 123°05'612.9
2017-Dec-09 02:00N 35°52' W 123°07'612.5
2017-Dec-09 01:30N 35°59' W 123°09'612.3
2017-Dec-09 01:00N 36°05' W 123°10'611.9
2017-Dec-09 00:30N 36°10' W 123°12'611.8
2017-Dec-09 00:00N 36°16' W 123°14'611.8
2017-Dec-08 23:30N 36°22' W 123°15'611.8
2017-Dec-08 23:00N 36°28' W 123°17'611.8
2017-Dec-08 22:30N 36°33' W 123°18'611.7
2017-Dec-08 22:00N 36°39' W 123°20'611.5
2017-Dec-08 21:30N 36°45' W 123°22'611.6
2017-Dec-08 21:00N 36°50' W 123°24'611.4
2017-Dec-08 20:30N 36°56' W 123°25'611.2
2017-Dec-08 20:00N 37°01' W 123°27'611.6
2017-Dec-08 19:30N 37°07' W 123°29'510.1
2017-Dec-08 19:00N 37°12' W 123°28'611.7
2017-Dec-08 18:30N 37°16' W 123°23'611.7
2017-Dec-08 18:00N 37°20' W 123°18'611.4
2017-Dec-08 17:30N 37°25' W 123°14'611.7
2017-Dec-08 17:00N 37°30' W 123°09'510.1
2017-Dec-08 16:30N 37°33' W 123°05'510.2
2017-Dec-08 16:00N 37°36' W 122°60'510.8
2017-Dec-08 15:30N 37°39' W 122°54'510.3
2017-Dec-08 15:00N 37°42' W 122°49'611.8
2017-Dec-08 14:30N 37°45' W 122°42'510.7
2017-Dec-08 14:00N 37°47' W 122°36'612.4
2017-Dec-08 13:30N 37°49' W 122°29'4 8.5
2017-Dec-08 13:00N 37°52' W 122°25'510.1
2017-Dec-08 12:30N 37°57' W 122°27'5 9.6
2017-Dec-08 12:00N 38°01' W 122°23'5 9.2
2017-Dec-08 11:30N 38°03' W 122°18'4 8.1
2017-Dec-08 11:00N 38°04' W 122°13'4 7.6
2017-Dec-08 10:30N 38°02' W 122°09'0 0.9
2017-Dec-08 10:00N 38°02' W 122°08'0 0.0
2017-Dec-08 09:15N 38°02' W 122°08'0 0.0
2017-Dec-08 08:57N 38°02' W 122°08'0 0.0
2017-Dec-08 08:21N 38°02' W 122°08'0 0.0
2017-Dec-08 07:51N 38°02' W 122°08'0 0.0
2017-Dec-08 07:27N 38°02' W 122°08'0 0.0
2017-Dec-08 06:57N 38°02' W 122°08'0 0.0
2017-Dec-08 06:21N 38°02' W 122°08'0 0.0
2017-Dec-08 05:51N 38°02' W 122°08'0 0.0
2017-Dec-08 05:27N 38°02' W 122°08'0 0.0
2017-Dec-08 04:57N 38°02' W 122°08'0 0.0
2017-Dec-08 04:27N 38°02' W 122°08'0 0.0
2017-Dec-08 03:57N 38°02' W 122°08'0 0.0
2017-Dec-08 03:27N 38°02' W 122°08'0 0.0
2017-Dec-08 02:57N 38°02' W 122°08'0 0.0
2017-Dec-08 02:27N 38°02' W 122°08'0 0.0
2017-Dec-08 01:57N 38°02' W 122°08'0 0.0
2017-Dec-08 01:27N 38°02' W 122°08'0 0.0
2017-Dec-08 00:57N 38°02' W 122°08'0 0.0
2017-Dec-08 00:27N 38°02' W 122°08'0 0.0
2017-Dec-07 23:57N 38°02' W 122°08'0 0.0
2017-Dec-07 23:15N 38°02' W 122°08'0 0.0
2017-Dec-07 22:57N 38°02' W 122°08'0 0.0
2017-Dec-07 22:15N 38°02' W 122°08'0 0.0
2017-Dec-07 21:57N 38°02' W 122°08'0 0.0
2017-Dec-07 21:27N 38°02' W 122°08'0 0.0
2017-Dec-07 20:57N 38°02' W 122°08'0 0.0
2017-Dec-07 20:27N 38°02' W 122°08'0 0.0
2017-Dec-07 19:57N 38°02' W 122°08'0 0.0
2017-Dec-07 19:27N 38°02' W 122°08'0 0.0
2017-Dec-07 18:57N 38°02' W 122°08'0 0.0
2017-Dec-07 18:27N 38°02' W 122°08'0 0.0
2017-Dec-07 17:57N 38°02' W 122°08'0 0.0
2017-Dec-07 17:27N 38°02' W 122°08'0 0.0
2017-Dec-07 16:51N 38°02' W 122°08'0 0.0
2017-Dec-07 16:27N 38°02' W 122°08'0 0.0
2017-Dec-07 15:57N 38°02' W 122°08'0 0.0
2017-Dec-07 15:27N 38°02' W 122°08'0 0.0
2017-Dec-07 14:51N 38°02' W 122°08'0 0.0
2017-Dec-07 14:27N 38°02' W 122°08'0 0.0
2017-Dec-07 13:57N 38°02' W 122°08'0 0.0
2017-Dec-07 13:27N 38°02' W 122°08'0 0.0
2017-Dec-07 12:57N 38°02' W 122°08'0 0.0
2017-Dec-07 12:27N 38°02' W 122°08'0 0.0
2017-Dec-07 11:57N 38°02' W 122°08'0 0.0
2017-Dec-07 11:27N 38°02' W 122°08'0 0.0
2017-Dec-07 10:57N 38°02' W 122°08'0 0.0
2017-Dec-07 10:27N 38°02' W 122°08'0 0.0
2017-Dec-07 09:57N 38°02' W 122°08'0 0.0
2017-Dec-07 09:21N 38°02' W 122°08'0 0.0
2017-Dec-07 08:57N 38°02' W 122°08'0 0.0
2017-Dec-07 08:27N 38°02' W 122°08'0 0.0
2017-Dec-07 07:51N 38°02' W 122°08'0 0.0
2017-Dec-07 07:27N 38°02' W 122°08'0 0.0
2017-Dec-07 06:51N 38°02' W 122°08'0 0.0
2017-Dec-07 06:27N 38°02' W 122°08'0 0.0
2017-Dec-07 05:57N 38°02' W 122°08'0 0.0
2017-Dec-07 05:27N 38°02' W 122°08'0 0.0
2017-Dec-07 04:57N 38°02' W 122°08'0 0.0
2017-Dec-07 04:21N 38°02' W 122°08'0 0.0
2017-Dec-07 03:51N 38°02' W 122°08'0 0.0
2017-Dec-07 03:27N 38°02' W 122°08'0 0.0
2017-Dec-07 02:57N 38°02' W 122°08'0 0.0
2017-Dec-07 02:27N 38°02' W 122°08'0 0.0
2017-Dec-07 01:57N 38°02' W 122°08'0 0.0
2017-Dec-07 01:27N 38°02' W 122°08'0 0.0
2017-Dec-07 00:53N 38°02' W 122°08'0 0.0
2017-Dec-07 00:29N 38°02' W 122°08'0 0.0
2017-Dec-07 00:00N 38°02' W 122°08'0 0.0
2017-Dec-06 23:30N 38°02' W 122°08'0 0.0
2017-Dec-06 23:00N 38°02' W 122°08'0 0.0
2017-Dec-06 22:30N 38°02' W 122°08'0 0.0
2017-Dec-06 22:00N 38°02' W 122°08'0 0.0
2017-Dec-06 21:31N 38°02' W 122°08'0 0.0
2017-Dec-06 21:01N 38°02' W 122°08'  
2017-Dec-04 02:14N 33°45' W 118°16'0 0.0
2017-Dec-04 02:01N 33°45' W 118°16'0 0.0
2017-Dec-04 01:29N 33°45' W 118°16'0 0.0
2017-Dec-04 01:00N 33°45' W 118°16'0 0.0
2017-Dec-04 00:31N 33°45' W 118°16'0 0.0
2017-Dec-04 00:00N 33°45' W 118°16'0 0.0
2017-Dec-03 23:30N 33°45' W 118°16'0 0.0
2017-Dec-03 23:01N 33°45' W 118°16'0 0.0
2017-Dec-03 09:42N 33°45' W 118°16'0 0.0
2017-Dec-03 08:53N 33°45' W 118°16'0 0.0
2017-Dec-03 08:31N 33°45' W 118°16'0 0.0
2017-Dec-03 07:59N 33°45' W 118°16'1 1.5
2017-Dec-03 07:30N 33°45' W 118°16'3 5.8
2017-Dec-03 07:01N 33°42' W 118°15'4 8.8
2017-Dec-03 06:31N 33°38' W 118°16'510.0
2017-Dec-03 05:59N 33°36' W 118°22'611.4
2017-Dec-03 05:28N 33°36' W 118°29'611.8
2017-Dec-03 05:00N 33°37' W 118°36'611.7
2017-Dec-03 04:30N 33°37' W 118°43'611.5
2017-Dec-03 03:58N 33°37' W 118°50'511.6
2017-Dec-03 03:30N 33°37' W 118°56'611.5
2017-Dec-03 03:00N 33°38' W 119°03'611.9
2017-Dec-03 02:30N 33°39' W 119°10'610.8
2017-Dec-03 01:59N 33°41' W 119°17'612.0
2017-Dec-03 01:30N 33°42' W 119°23'612.3
2017-Dec-03 01:00N 33°44' W 119°30'612.2
2017-Dec-03 00:30N 33°46' W 119°37'612.3
2017-Dec-03 00:01N 33°47' W 119°45'612.3
2017-Dec-02 23:30N 33°46' W 119°52'612.3
2017-Dec-02 23:01N 33°46' W 119°59'612.4
2017-Dec-02 22:30N 33°45' W 120°07'510.8
2017-Dec-02 22:00N 33°44' W 120°13'611.1
2017-Dec-02 21:31N 33°43' W 120°20'510.6
2017-Dec-02 21:01N 33°43' W 120°26'611.1
2017-Dec-02 20:31N 33°45' W 120°32'611.3
2017-Dec-02 20:00N 33°47' W 120°39'611.3
2017-Dec-02 19:30N 33°50' W 120°45'611.1
2017-Dec-02 19:01N 33°52' W 120°51'610.9
2017-Dec-02 18:30N 33°53' W 120°57'611.1
2017-Dec-02 18:00N 33°55' W 121°04'611.1
2017-Dec-02 17:30N 33°57' W 121°10'611.5
2017-Dec-02 17:01N 33°60' W 121°16'611.2
2017-Dec-02 16:30N 34°02' W 121°22'510.9
2017-Dec-02 16:01N 34°04' W 121°28'611.2
2017-Dec-02 15:30N 34°06' W 121°35'611.4
2017-Dec-02 15:01N 34°11' W 121°39'611.2
2017-Dec-02 14:30N 34°15' W 121°43'611.4
2017-Dec-02 14:01N 34°19' W 121°48'611.2
2017-Dec-02 13:30N 34°24' W 121°52'611.3
2017-Dec-02 13:00N 34°28' W 121°56'611.4
2017-Dec-02 12:31N 34°32' W 122°01'611.5
2017-Dec-02 12:00N 34°37' W 122°05'611.5
2017-Dec-02 11:30N 34°41' W 122°10'611.4
2017-Dec-02 11:01N 34°45' W 122°14'611.9
2017-Dec-02 10:31N 34°50' W 122°19'611.8
2017-Dec-02 10:01N 34°55' W 122°24'611.9
2017-Dec-02 09:31N 34°59' W 122°28'611.8
2017-Dec-02 09:01N 35°04' W 122°33'611.8
2017-Dec-02 08:30N 35°08' W 122°38'611.6
2017-Dec-02 08:01N 35°13' W 122°42'611.6
2017-Dec-02 07:30N 35°17' W 122°47'611.8
2017-Dec-02 06:59N 35°22' W 122°51'611.8
2017-Dec-02 06:31N 35°26' W 122°56'611.1
2017-Dec-02 06:00N 35°31' W 122°60'611.5
2017-Dec-02 05:31N 35°36' W 123°02'611.5
2017-Dec-02 05:00N 35°42' W 123°04'611.5
2017-Dec-02 04:30N 35°47' W 123°06'611.8
2017-Dec-02 03:59N 35°53' W 123°07'611.7
2017-Dec-02 03:31N 35°59' W 123°09'611.9
2017-Dec-02 03:01N 36°05' W 123°10'612.0
2017-Dec-02 02:30N 36°10' W 123°12'712.0
2017-Dec-02 01:58N 36°17' W 123°14'612.1
2017-Dec-02 01:28N 36°23' W 123°16'512.0
2017-Dec-02 01:00N 36°28' W 123°17'612.0
2017-Dec-02 00:30N 36°34' W 123°19'711.8
2017-Dec-01 23:56N 36°40' W 123°21'511.7
2017-Dec-01 23:29N 36°46' W 123°23'611.5
2017-Dec-01 22:58N 36°51' W 123°24'511.5
2017-Dec-01 22:30N 36°56' W 123°25'611.4
2017-Dec-01 22:00N 37°02' W 123°26'610.7
2017-Dec-01 21:29N 37°08' W 123°25'510.6
2017-Dec-01 20:58N 37°13' W 123°25'510.5
2017-Dec-01 20:30N 37°17' W 123°21'510.9
2017-Dec-01 20:00N 37°21' W 123°17'510.7
2017-Dec-01 19:31N 37°26' W 123°13'510.9
2017-Dec-01 19:00N 37°30' W 123°09'510.7
2017-Dec-01 18:30N 37°34' W 123°04'5 9.7
2017-Dec-01 18:00N 37°36' W 122°59'510.1
2017-Dec-01 17:30N 37°39' W 122°54'510.2
2017-Dec-01 17:00N 37°42' W 122°48'  

Dump ship's entire track history